createdAt,value
2022-09-11T00:01:03.752Z,18.08
2022-09-11T00:03:31.549Z,17.65
2022-09-11T00:06:03.336Z,17.97
2022-09-11T00:08:32.081Z,18.18
2022-09-11T00:11:07.572Z,18.01
2022-09-11T00:13:35.844Z,18.28
2022-09-11T00:16:05.731Z,18.20
2022-09-11T00:18:36.063Z,18.46
2022-09-11T00:21:04.031Z,18.34
2022-09-11T00:23:31.444Z,18.19
2022-09-11T00:26:02.197Z,18.23
2022-09-11T00:28:29.912Z,18.29
2022-09-11T00:31:05.231Z,18.46
2022-09-11T00:33:33.513Z,18.38
2022-09-11T00:36:03.969Z,18.17
2022-09-11T00:38:33.300Z,18.10
2022-09-11T00:41:01.453Z,18.07
2022-09-11T00:43:29.624Z,17.99
2022-09-11T00:45:59.476Z,18.05
2022-09-11T00:48:30.357Z,18.27
2022-09-11T00:50:58.812Z,18.44
2022-09-11T00:53:26.557Z,18.38
2022-09-11T00:55:58.912Z,18.34
2022-09-11T00:58:27.782Z,18.44
2022-09-11T01:00:55.878Z,18.34
2022-09-11T01:03:24.458Z,18.24
2022-09-11T01:05:52.438Z,18.21
2022-09-11T01:08:21.041Z,18.00
2022-09-11T01:11:17.925Z,18.06
2022-09-11T01:13:55.205Z,17.64
2022-09-11T01:16:49.194Z,17.77
2022-09-11T01:19:37.138Z,17.61
2022-09-11T01:22:18.618Z,17.73
2022-09-11T01:25:15.615Z,17.66
2022-09-11T01:27:50.721Z,17.64
2022-09-11T01:30:22.457Z,17.90
2022-09-11T01:33:04.395Z,17.83
2022-09-11T01:35:33.070Z,17.96
2022-09-11T01:38:14.985Z,17.67
2022-09-11T01:40:45.950Z,17.27
2022-09-11T01:43:16.205Z,17.81
2022-09-11T01:45:45.448Z,17.79
2022-09-11T01:48:14.924Z,17.08
2022-09-11T01:50:42.263Z,17.64
2022-09-11T01:53:10.880Z,17.03
2022-09-11T01:55:44.416Z,16.72
2022-09-11T01:58:18.376Z,16.67
2022-09-11T02:00:46.545Z,16.89
2022-09-11T02:03:16.893Z,16.83
2022-09-11T02:06:01.856Z,16.55
2022-09-11T02:08:51.489Z,16.61
2022-09-11T02:11:19.186Z,17.13
2022-09-11T02:14:07.029Z,17.07
2022-09-11T02:16:48.905Z,17.07
2022-09-11T02:19:20.901Z,17.28
2022-09-11T02:21:48.940Z,17.56
2022-09-11T02:24:16.336Z,17.26
2022-09-11T02:26:48.327Z,16.49
2022-09-11T02:29:16.205Z,17.05
2022-09-11T02:31:44.366Z,16.59
2022-09-11T02:34:12.382Z,16.62
2022-09-11T02:36:58.187Z,16.34
2022-09-11T02:39:53.691Z,16.36
2022-09-11T02:42:31.078Z,16.41
2022-09-11T02:45:35.697Z,15.67
2022-09-11T02:48:29.131Z,16.29
2022-09-11T02:51:18.563Z,16.57
2022-09-11T02:54:02.289Z,16.55
2022-09-11T02:56:32.434Z,16.97
2022-09-11T02:59:02.703Z,16.72
2022-09-11T03:01:31.775Z,16.77
2022-09-11T03:03:59.338Z,16.64
2022-09-11T03:06:29.848Z,16.49
2022-09-11T03:08:57.152Z,16.96
2022-09-11T03:11:24.628Z,17.17
2022-09-11T03:13:52.610Z,16.95
2022-09-11T03:16:20.347Z,17.27
2022-09-11T03:18:47.937Z,17.48
2022-09-11T03:21:16.898Z,17.46
2022-09-11T03:23:44.713Z,17.46
2022-09-11T03:26:12.117Z,17.37
2022-09-11T03:28:40.040Z,17.39
2022-09-11T03:31:09.487Z,17.46
2022-09-11T03:33:37.401Z,17.07
2022-09-11T03:36:05.339Z,17.32
2022-09-11T03:38:33.089Z,17.26
2022-09-11T03:41:02.797Z,17.14
2022-09-11T03:43:31.666Z,17.51
2022-09-11T03:46:00.735Z,17.17
2022-09-11T03:48:29.200Z,17.35
2022-09-11T03:50:56.895Z,17.32
2022-09-11T03:53:24.835Z,17.33
2022-09-11T03:55:52.268Z,17.50
2022-09-11T03:58:20.175Z,17.34
2022-09-11T04:00:47.654Z,17.09
2022-09-11T04:03:16.147Z,17.16
2022-09-11T04:05:44.173Z,17.43
2022-09-11T04:08:12.920Z,17.53
2022-09-11T04:10:40.924Z,17.54
2022-09-11T04:13:08.905Z,17.62
2022-09-11T04:15:36.256Z,17.51
2022-09-11T04:18:07.347Z,17.60
2022-09-11T04:20:34.842Z,17.56
2022-09-11T04:23:02.987Z,17.65
2022-09-11T04:25:31.154Z,17.50
2022-09-11T04:27:58.768Z,17.64
2022-09-11T04:30:26.870Z,17.56
2022-09-11T04:32:55.540Z,17.85
2022-09-11T04:35:23.053Z,17.85
2022-09-11T04:37:50.848Z,17.87
2022-09-11T04:40:18.532Z,17.80
2022-09-11T04:42:45.959Z,17.76
2022-09-11T04:45:14.325Z,17.97
2022-09-11T04:47:42.448Z,17.92
2022-09-11T04:50:12.814Z,17.86
2022-09-11T04:52:40.185Z,17.94
2022-09-11T04:55:08.555Z,18.01
2022-09-11T04:57:35.908Z,17.92
2022-09-11T05:00:04.907Z,18.21
2022-09-11T05:02:32.619Z,17.96
2022-09-11T05:05:00.025Z,18.05
2022-09-11T05:07:29.866Z,18.11
2022-09-11T05:09:59.524Z,18.29
2022-09-11T05:12:28.101Z,18.37
2022-09-11T05:14:55.472Z,18.44
2022-09-11T05:17:23.212Z,18.53
2022-09-11T05:19:50.939Z,18.67
2022-09-11T05:22:20.536Z,18.79
2022-09-11T05:24:49.144Z,18.87
2022-09-11T05:27:17.468Z,18.94
2022-09-11T05:29:45.114Z,18.93
2022-09-11T05:32:13.539Z,19.06
2022-09-11T05:34:41.623Z,19.05
2022-09-11T05:37:09.418Z,19.34
2022-09-11T05:39:37.204Z,19.27
2022-09-11T05:42:05.041Z,19.37
2022-09-11T05:44:32.678Z,19.30
2022-09-11T05:47:00.517Z,19.41
2022-09-11T05:49:27.913Z,19.47
2022-09-11T05:51:55.273Z,19.07
2022-09-11T05:54:24.037Z,19.42
2022-09-11T05:56:54.611Z,18.98
2022-09-11T05:59:22.187Z,19.13
2022-09-11T06:01:50.333Z,19.19
2022-09-11T06:04:18.669Z,18.99
2022-09-11T06:06:49.460Z,19.31
2022-09-11T06:09:17.177Z,19.35
2022-09-11T06:11:44.830Z,18.69
2022-09-11T06:14:13.238Z,19.12
2022-09-11T06:16:41.146Z,19.66
2022-09-11T06:19:09.461Z,19.19
2022-09-11T06:21:36.884Z,18.87
2022-09-11T06:24:05.614Z,19.44
2022-09-11T06:26:35.405Z,20.24
2022-09-11T06:29:03.216Z,19.37
2022-09-11T06:31:30.947Z,19.49
2022-09-11T06:33:58.537Z,19.68
2022-09-11T06:36:32.646Z,19.79
2022-09-11T06:39:00.702Z,20.11
2022-09-11T06:41:28.304Z,20.38
2022-09-11T06:43:56.763Z,20.28
2022-09-11T06:46:25.338Z,20.96
2022-09-11T06:48:54.981Z,19.69
2022-09-11T06:51:23.492Z,20.38
2022-09-11T06:53:58.649Z,20.44
2022-09-11T06:56:26.310Z,20.23
2022-09-11T06:58:53.949Z,20.24
2022-09-11T07:01:22.456Z,20.73
2022-09-11T07:03:53.122Z,20.86
2022-09-11T07:06:23.379Z,19.81
2022-09-11T07:09:00.948Z,20.04
2022-09-11T07:11:33.123Z,19.90
2022-09-11T07:14:01.442Z,20.26
2022-09-11T07:16:29.336Z,20.22
2022-09-11T07:18:58.273Z,20.81
2022-09-11T07:21:27.086Z,20.60
2022-09-11T07:23:58.445Z,20.14
2022-09-11T07:26:27.526Z,20.39
2022-09-11T07:28:57.618Z,20.58
2022-09-11T07:31:27.079Z,20.54
2022-09-11T07:33:55.004Z,19.66
2022-09-11T07:36:33.113Z,20.54
2022-09-11T07:39:00.696Z,19.99
2022-09-11T07:41:29.604Z,20.06
2022-09-11T07:43:59.745Z,19.71
2022-09-11T07:46:27.620Z,20.39
2022-09-11T07:48:55.584Z,19.92
2022-09-11T07:51:22.911Z,20.32
2022-09-11T07:53:51.388Z,20.32
2022-09-11T07:56:20.835Z,20.02
2022-09-11T07:58:48.805Z,20.79
2022-09-11T08:01:18.764Z,20.66
2022-09-11T08:03:46.762Z,20.80
2022-09-11T08:06:21.533Z,20.98
2022-09-11T08:08:54.950Z,20.89
2022-09-11T08:11:22.897Z,20.42
2022-09-11T08:13:51.043Z,20.32
2022-09-11T08:16:19.961Z,20.29
2022-09-11T08:18:48.343Z,20.70
2022-09-11T08:21:16.923Z,21.45
2022-09-11T08:23:45.534Z,21.36
2022-09-11T08:26:24.265Z,21.20
2022-09-11T08:28:53.083Z,21.94
2022-09-11T08:31:22.438Z,21.25
2022-09-11T08:33:50.081Z,21.67
2022-09-11T08:36:17.759Z,20.76
2022-09-11T08:38:45.763Z,21.76
2022-09-11T08:41:25.732Z,21.90
2022-09-11T08:43:59.280Z,20.64
2022-09-11T08:46:33.833Z,21.76
2022-09-11T08:49:27.602Z,21.56
2022-09-11T08:51:58.244Z,22.26
2022-09-11T08:54:32.001Z,22.64
2022-09-11T08:57:22.221Z,21.75
2022-09-11T09:00:03.497Z,21.62
2022-09-11T09:02:50.372Z,21.56
2022-09-11T09:05:40.050Z,21.89
2022-09-11T09:08:19.522Z,21.54
2022-09-11T09:10:50.206Z,21.89
2022-09-11T09:13:37.760Z,22.00
2022-09-11T09:16:34.561Z,21.90
2022-09-11T09:19:07.209Z,22.98
2022-09-11T09:21:37.701Z,22.89
2022-09-11T09:24:08.109Z,22.22
2022-09-11T09:26:39.984Z,22.33
2022-09-11T09:29:12.158Z,22.34
2022-09-11T09:31:41.343Z,23.15
2022-09-11T09:34:17.495Z,22.19
2022-09-11T09:37:11.399Z,21.28
2022-09-11T09:39:39.114Z,21.11
2022-09-11T09:42:20.107Z,21.49
2022-09-11T09:44:50.519Z,20.76
2022-09-11T09:47:18.111Z,20.68
2022-09-11T09:49:45.481Z,20.80
2022-09-11T09:52:17.360Z,20.76
2022-09-11T09:55:06.204Z,20.78
2022-09-11T09:57:36.681Z,21.70
2022-09-11T10:00:11.928Z,21.71
2022-09-11T10:02:43.343Z,20.89
2022-09-11T10:05:42.169Z,20.84
2022-09-11T10:08:29.864Z,21.14
2022-09-11T10:11:01.296Z,20.79
2022-09-11T10:13:30.883Z,21.02
2022-09-11T10:15:59.942Z,21.36
2022-09-11T10:18:30.578Z,20.57
2022-09-11T10:21:13.310Z,20.82
2022-09-11T10:23:59.873Z,20.40
2022-09-11T10:26:41.157Z,20.63
2022-09-11T10:29:19.134Z,20.57
2022-09-11T10:31:59.333Z,20.74
2022-09-11T10:34:27.195Z,20.05
2022-09-11T10:37:15.899Z,20.77
2022-09-11T10:39:44.425Z,21.97
2022-09-11T10:42:16.872Z,22.08
2022-09-11T10:44:44.573Z,21.18
2022-09-11T10:47:25.091Z,22.00
2022-09-11T10:50:17.439Z,20.97
2022-09-11T10:53:11.044Z,21.17
2022-09-11T10:55:40.870Z,21.06
2022-09-11T10:58:14.447Z,20.76
2022-09-11T11:00:41.786Z,20.78
2022-09-11T11:03:17.600Z,21.48
2022-09-11T11:05:50.955Z,21.40
2022-09-11T11:08:40.611Z,21.54
2022-09-11T11:11:20.661Z,20.96
2022-09-11T11:14:27.183Z,21.69
2022-09-11T11:17:24.140Z,22.34
2022-09-11T11:20:11.281Z,22.18
2022-09-11T11:23:05.890Z,22.82
2022-09-11T11:25:58.468Z,23.45
2022-09-11T11:29:00.417Z,21.78
2022-09-11T11:31:40.305Z,21.75
2022-09-11T11:34:26.629Z,21.77
2022-09-11T11:37:06.814Z,21.84
2022-09-11T11:40:05.558Z,21.91
2022-09-11T11:42:35.580Z,22.18
2022-09-11T11:45:26.825Z,22.21
2022-09-11T11:47:55.465Z,22.13
2022-09-11T11:50:31.887Z,22.30
2022-09-11T11:53:12.536Z,22.37
2022-09-11T11:55:54.766Z,22.51
2022-09-11T11:58:50.182Z,22.37
2022-09-11T12:01:24.846Z,23.20
2022-09-11T12:03:59.631Z,22.83
2022-09-11T12:06:27.096Z,21.97
2022-09-11T12:08:54.731Z,21.86
2022-09-11T12:11:30.862Z,22.29
2022-09-11T12:13:58.789Z,21.73
2022-09-11T12:16:29.091Z,21.39
2022-09-11T12:19:21.373Z,20.53
2022-09-11T12:21:54.951Z,20.52
2022-09-11T12:24:52.482Z,19.05
2022-09-11T12:27:35.046Z,18.85
2022-09-11T12:30:08.730Z,17.91
2022-09-11T12:32:45.770Z,17.67
2022-09-11T12:35:15.236Z,17.13
2022-09-11T12:37:42.879Z,17.61
2022-09-11T12:40:20.284Z,18.20
2022-09-11T12:42:56.851Z,18.98
2022-09-11T12:45:30.246Z,18.58
2022-09-11T12:48:34.542Z,19.03
2022-09-11T12:51:01.889Z,18.99
2022-09-11T12:53:34.150Z,18.56
2022-09-11T12:56:06.682Z,18.89
2022-09-11T12:58:36.096Z,18.80
2022-09-11T13:01:12.166Z,18.91
2022-09-11T13:03:45.819Z,19.52
2022-09-11T13:06:13.713Z,20.09
2022-09-11T13:08:52.984Z,19.71
2022-09-11T13:11:54.420Z,20.00
2022-09-11T13:14:28.519Z,20.08
2022-09-11T13:16:56.079Z,19.41
2022-09-11T13:19:23.784Z,20.10
2022-09-11T13:21:55.087Z,20.26
2022-09-11T13:24:22.244Z,19.11
2022-09-11T13:26:55.219Z,19.32
2022-09-11T13:29:23.015Z,19.44
2022-09-11T13:31:50.645Z,19.09
2022-09-11T13:34:18.606Z,19.21
2022-09-11T13:36:47.180Z,18.69
2022-09-11T13:39:14.890Z,18.92
2022-09-11T13:41:44.410Z,19.01
2022-09-11T13:44:25.382Z,18.65
2022-09-11T13:46:53.105Z,19.62
2022-09-11T13:49:36.039Z,19.08
2022-09-11T13:52:05.242Z,19.26
2022-09-11T13:54:34.792Z,19.05
2022-09-11T13:57:01.989Z,19.26
2022-09-11T13:59:49.407Z,19.14
2022-09-11T14:02:35.272Z,18.90
2022-09-11T14:05:05.430Z,19.16
2022-09-11T14:07:33.327Z,19.33
2022-09-11T14:10:06.507Z,19.55
2022-09-11T14:12:35.084Z,19.32
2022-09-11T14:15:09.952Z,19.21
2022-09-11T14:17:40.415Z,19.07
2022-09-11T14:20:16.690Z,19.02
2022-09-11T14:22:44.274Z,19.51
2022-09-11T14:25:22.947Z,19.38
2022-09-11T14:27:50.552Z,19.92
2022-09-11T14:30:37.532Z,20.17
2022-09-11T14:33:21.487Z,20.11
2022-09-11T14:35:50.232Z,20.58
2022-09-11T14:38:19.432Z,20.18
2022-09-11T14:40:52.634Z,20.85
2022-09-11T14:43:26.570Z,21.61
2022-09-11T14:45:54.659Z,20.98
2022-09-11T14:48:22.334Z,21.26
2022-09-11T14:50:49.703Z,21.15
2022-09-11T14:53:18.782Z,22.07
2022-09-11T14:55:46.410Z,20.99
2022-09-11T14:58:13.806Z,22.02
2022-09-11T15:00:41.540Z,21.60
2022-09-11T15:03:09.224Z,21.67
2022-09-11T15:05:36.626Z,22.08
2022-09-11T15:08:05.085Z,22.23
2022-09-11T15:10:32.819Z,21.23
2022-09-11T15:13:00.265Z,22.04
2022-09-11T15:15:28.160Z,22.36
2022-09-11T15:17:55.868Z,21.95
2022-09-11T15:20:25.417Z,21.26
2022-09-11T15:22:52.761Z,21.30
2022-09-11T15:25:20.732Z,21.29
2022-09-11T15:27:53.323Z,20.99
2022-09-11T15:30:21.086Z,20.95
2022-09-11T15:32:48.950Z,20.53
2022-09-11T15:35:18.236Z,20.44
2022-09-11T15:37:46.892Z,21.24
2022-09-11T15:40:14.281Z,21.24
2022-09-11T15:42:42.142Z,21.10
2022-09-11T15:45:10.061Z,20.90
2022-09-11T15:47:37.414Z,20.69
2022-09-11T15:50:05.421Z,20.37
2022-09-11T15:52:34.377Z,20.27
2022-09-11T15:55:02.419Z,20.24
2022-09-11T15:57:31.025Z,20.11
2022-09-11T15:59:58.870Z,19.98
2022-09-11T16:02:27.118Z,19.80
2022-09-11T16:04:54.918Z,19.62
2022-09-11T16:07:23.364Z,19.82
2022-09-11T16:09:50.757Z,19.98
2022-09-11T16:12:18.479Z,19.74
2022-09-11T16:14:46.631Z,19.73
2022-09-11T16:17:16.898Z,20.26
2022-09-11T16:19:44.842Z,20.10
2022-09-11T16:22:12.298Z,19.69
2022-09-11T16:24:39.671Z,19.47
2022-09-11T16:27:07.968Z,19.62
2022-09-11T16:30:05.471Z,19.03
2022-09-11T16:32:29.200Z,19.58
2022-09-11T16:34:57.282Z,19.21
2022-09-11T16:37:25.849Z,19.40
2022-09-11T16:39:53.248Z,19.32
2022-09-11T16:42:21.262Z,19.59
2022-09-11T16:44:49.901Z,19.18
2022-09-11T16:47:17.642Z,19.06
2022-09-11T16:50:05.816Z,19.08
2022-09-11T16:52:32.612Z,19.24
2022-09-11T16:55:00.003Z,19.31
2022-09-11T16:57:27.513Z,19.78
2022-09-11T16:59:55.249Z,19.07
2022-09-11T17:02:22.641Z,19.24
2022-09-11T17:04:49.986Z,18.32
2022-09-11T17:07:18.295Z,18.86
2022-09-11T17:09:48.732Z,18.94
2022-09-11T17:12:17.955Z,19.32
2022-09-11T17:14:45.586Z,18.88
2022-09-11T17:17:13.078Z,19.25
2022-09-11T17:19:40.402Z,18.91
2022-09-11T17:22:08.640Z,19.11
2022-09-11T17:24:36.409Z,19.30
2022-09-11T17:27:03.840Z,19.23
2022-09-11T17:29:31.433Z,19.45
2022-09-11T17:32:23.922Z,19.89
2022-09-11T17:34:47.716Z,19.98
2022-09-11T17:37:15.130Z,19.96
2022-09-11T17:39:42.678Z,20.26
2022-09-11T17:42:13.189Z,19.97
2022-09-11T17:44:43.161Z,20.13
2022-09-11T17:47:10.773Z,19.95
2022-09-11T17:49:38.673Z,19.42
2022-09-11T17:52:06.020Z,19.17
2022-09-11T17:54:34.050Z,19.19
2022-09-11T17:57:01.383Z,18.34
2022-09-11T17:59:28.808Z,18.26
2022-09-11T18:01:58.996Z,18.78
2022-09-11T18:04:26.889Z,17.73
2022-09-11T18:06:55.077Z,18.22
2022-09-11T18:09:22.639Z,17.72
2022-09-11T18:11:51.017Z,18.10
2022-09-11T18:14:18.688Z,18.23
2022-09-11T18:16:47.302Z,18.18
2022-09-11T18:19:15.784Z,17.86
2022-09-11T18:21:46.767Z,18.71
2022-09-11T18:24:20.018Z,18.65
2022-09-11T18:26:49.914Z,18.72
2022-09-11T18:29:20.075Z,17.71
2022-09-11T18:31:52.318Z,17.69
2022-09-11T18:34:24.809Z,17.53
2022-09-11T18:36:52.289Z,17.64
2022-09-11T18:39:21.032Z,17.63
2022-09-11T18:41:49.687Z,17.43
2022-09-11T18:44:19.844Z,17.55
2022-09-11T18:46:48.238Z,17.55
2022-09-11T18:49:15.828Z,17.68
2022-09-11T18:51:43.580Z,17.36
2022-09-11T18:54:15.298Z,17.38
2022-09-11T18:56:43.053Z,16.77
2022-09-11T18:59:11.098Z,17.53
2022-09-11T19:01:39.874Z,16.98
2022-09-11T19:04:10.936Z,17.15
2022-09-11T19:06:38.786Z,16.88
2022-09-11T19:09:10.204Z,16.74
2022-09-11T19:11:38.245Z,16.71
2022-09-11T19:14:07.177Z,17.03
2022-09-11T19:16:36.145Z,17.34
2022-09-11T19:19:03.617Z,17.13
2022-09-11T19:21:31.319Z,17.37
2022-09-11T19:24:00.363Z,17.05
2022-09-11T19:26:33.191Z,17.07
2022-09-11T19:29:01.046Z,17.49
2022-09-11T19:31:30.002Z,17.29
2022-09-11T19:34:00.234Z,17.26
2022-09-11T19:36:32.245Z,17.24
2022-09-11T19:39:00.477Z,16.79
2022-09-11T19:41:33.229Z,16.58
2022-09-11T19:44:02.103Z,16.43
2022-09-11T19:46:30.790Z,16.60
2022-09-11T19:49:00.590Z,16.65
2022-09-11T19:51:35.560Z,16.61
2022-09-11T19:54:03.886Z,16.22
2022-09-11T19:56:32.856Z,16.47
2022-09-11T19:59:00.470Z,16.04
2022-09-11T20:01:29.492Z,16.40
2022-09-11T20:03:57.608Z,15.95
2022-09-11T20:06:27.440Z,16.42
2022-09-11T20:09:13.848Z,15.72
2022-09-11T20:11:43.855Z,15.86
2022-09-11T20:14:12.232Z,16.09
2022-09-11T20:16:39.561Z,16.14
2022-09-11T20:19:07.274Z,16.31
2022-09-11T20:21:36.041Z,16.56
2022-09-11T20:24:05.183Z,16.00
2022-09-11T20:26:32.957Z,15.75
2022-09-11T20:29:04.810Z,16.03
2022-09-11T20:31:37.069Z,16.01
2022-09-11T20:34:08.200Z,16.63
2022-09-11T20:36:35.561Z,16.26
2022-09-11T20:39:02.968Z,16.30
2022-09-11T20:41:30.601Z,16.49
2022-09-11T20:43:58.288Z,16.71
2022-09-11T20:46:25.756Z,16.62
2022-09-11T20:48:53.383Z,16.16
2022-09-11T20:51:21.002Z,16.37
2022-09-11T20:53:48.459Z,17.16
2022-09-11T20:56:17.976Z,16.37
2022-09-11T20:58:45.405Z,15.80
2022-09-11T21:01:14.261Z,16.06
2022-09-11T21:03:46.165Z,16.07
2022-09-11T21:06:13.685Z,16.80
2022-09-11T21:08:42.228Z,16.01
2022-09-11T21:11:09.965Z,16.32
2022-09-11T21:13:38.032Z,16.57
2022-09-11T21:16:10.018Z,16.83
2022-09-11T21:18:37.855Z,16.57
2022-09-11T21:21:05.497Z,16.35
2022-09-11T21:23:32.883Z,16.79
2022-09-11T21:26:00.524Z,17.47
2022-09-11T21:28:27.860Z,16.70
2022-09-11T21:30:57.153Z,17.33
2022-09-11T21:33:25.886Z,17.57
2022-09-11T21:35:53.598Z,17.81
2022-09-11T21:38:28.396Z,17.95
2022-09-11T21:40:56.942Z,17.91
2022-09-11T21:43:24.326Z,17.52
2022-09-11T21:45:51.670Z,17.83
2022-09-11T21:48:19.251Z,17.55
2022-09-11T21:50:46.585Z,17.64
2022-09-11T21:53:13.958Z,17.70
2022-09-11T21:55:43.345Z,17.70
2022-09-11T21:58:16.770Z,17.63
2022-09-11T22:00:44.434Z,16.52
2022-09-11T22:03:12.603Z,16.14
2022-09-11T22:05:43.239Z,15.90
2022-09-11T22:08:11.760Z,15.95
2022-09-11T22:10:43.329Z,16.43
2022-09-11T22:13:10.777Z,16.64
2022-09-11T22:15:48.314Z,15.98
2022-09-11T22:18:16.439Z,15.85
2022-09-11T22:20:43.997Z,16.21
2022-09-11T22:23:18.338Z,15.43
2022-09-11T22:25:45.983Z,15.54
2022-09-11T22:28:13.307Z,15.75
2022-09-11T22:30:41.836Z,15.86
2022-09-11T22:33:10.055Z,15.66
2022-09-11T22:35:37.508Z,16.51
2022-09-11T22:38:04.836Z,16.22
2022-09-11T22:40:32.446Z,15.59
2022-09-11T22:43:00.152Z,16.36
2022-09-11T22:45:27.562Z,16.27
2022-09-11T22:47:55.196Z,16.77
2022-09-11T22:50:22.488Z,16.39
2022-09-11T22:52:49.845Z,15.96
2022-09-11T22:55:17.492Z,16.00
2022-09-11T22:57:44.862Z,15.27
2022-09-11T23:00:14.303Z,15.35
2022-09-11T23:02:42.018Z,15.55
2022-09-11T23:05:28.014Z,15.95
2022-09-11T23:07:55.442Z,14.90
2022-09-11T23:10:23.722Z,15.55
2022-09-11T23:12:51.916Z,15.63
2022-09-11T23:15:19.599Z,14.98
2022-09-11T23:17:46.947Z,14.99
2022-09-11T23:20:14.317Z,15.05
2022-09-11T23:22:41.978Z,15.07
2022-09-11T23:25:11.116Z,15.25
2022-09-11T23:27:38.433Z,15.07
2022-09-11T23:30:06.376Z,14.84
2022-09-11T23:32:33.747Z,15.03
2022-09-11T23:35:01.093Z,15.32
2022-09-11T23:37:28.724Z,15.29
2022-09-11T23:39:56.097Z,15.27
2022-09-11T23:42:23.699Z,15.57
2022-09-11T23:44:51.297Z,15.25
2022-09-11T23:47:18.625Z,14.85
2022-09-11T23:49:46.935Z,15.00
2022-09-11T23:52:14.682Z,15.27
2022-09-11T23:54:41.998Z,15.06
2022-09-11T23:57:09.369Z,14.63
2022-09-11T23:59:37.014Z,14.72
